sensor_id;sensor_type;location;lat;lon;timestamp;temperature;humidity
27162;DHT22;54464;50.558;9.704;2022-12-18T00:00:56;-7.40;99.90
27162;DHT22;54464;50.558;9.704;2022-12-18T00:03:21;-7.40;99.90
27162;DHT22;54464;50.558;9.704;2022-12-18T00:05:48;-7.40;99.90
27162;DHT22;54464;50.558;9.704;2022-12-18T00:08:14;-7.40;99.90
27162;DHT22;54464;50.558;9.704;2022-12-18T00:10:42;-7.40;99.90
27162;DHT22;54464;50.558;9.704;2022-12-18T00:13:07;-7.40;99.90
27162;DHT22;54464;50.558;9.704;2022-12-18T00:15:35;-7.50;99.90
27162;DHT22;54464;50.558;9.704;2022-12-18T00:18:00;-7.50;99.90
27162;DHT22;54464;50.558;9.704;2022-12-18T00:20:26;-7.50;99.90
27162;DHT22;54464;50.558;9.704;2022-12-18T00:22:52;-7.60;99.90
27162;DHT22;54464;50.558;9.704;2022-12-18T00:25:18;-7.60;99.90
27162;DHT22;54464;50.558;9.704;2022-12-18T00:27:44;-7.60;99.90
27162;DHT22;54464;50.558;9.704;2022-12-18T00:30:10;-7.60;99.90
27162;DHT22;54464;50.558;9.704;2022-12-18T00:32:36;-7.60;99.90
27162;DHT22;54464;50.558;9.704;2022-12-18T00:35:03;-7.60;99.90
27162;DHT22;54464;50.558;9.704;2022-12-18T00:37:28;-7.50;99.90
27162;DHT22;54464;50.558;9.704;2022-12-18T00:39:54;-7.50;99.90
27162;DHT22;54464;50.558;9.704;2022-12-18T00:42:20;-7.50;99.90
27162;DHT22;54464;50.558;9.704;2022-12-18T00:45:04;-7.50;99.90
27162;DHT22;54464;50.558;9.704;2022-12-18T00:47:30;-7.40;99.90
27162;DHT22;54464;50.558;9.704;2022-12-18T00:49:55;-7.40;99.90
27162;DHT22;54464;50.558;9.704;2022-12-18T00:52:21;-7.40;99.90
27162;DHT22;54464;50.558;9.704;2022-12-18T00:54:47;-7.50;99.90
27162;DHT22;54464;50.558;9.704;2022-12-18T00:57:12;-7.60;99.90
27162;DHT22;54464;50.558;9.704;2022-12-18T00:59:38;-7.60;99.90
27162;DHT22;54464;50.558;9.704;2022-12-18T01:02:03;-7.60;99.90
27162;DHT22;54464;50.558;9.704;2022-12-18T01:04:31;-7.60;99.90
27162;DHT22;54464;50.558;9.704;2022-12-18T01:06:57;-7.70;99.90
27162;DHT22;54464;50.558;9.704;2022-12-18T01:09:23;-7.70;99.90
27162;DHT22;54464;50.558;9.704;2022-12-18T01:11:48;-7.70;99.90
27162;DHT22;54464;50.558;9.704;2022-12-18T01:14:14;-7.70;99.90
27162;DHT22;54464;50.558;9.704;2022-12-18T01:16:39;-7.80;99.90
27162;DHT22;54464;50.558;9.704;2022-12-18T01:19:05;-7.90;99.90
27162;DHT22;54464;50.558;9.704;2022-12-18T01:21:31;-7.90;99.90
27162;DHT22;54464;50.558;9.704;2022-12-18T01:23:57;-7.90;99.90
27162;DHT22;54464;50.558;9.704;2022-12-18T01:26:23;-7.90;99.90
27162;DHT22;54464;50.558;9.704;2022-12-18T01:28:50;-7.90;99.90
27162;DHT22;54464;50.558;9.704;2022-12-18T01:31:26;-7.90;99.90
27162;DHT22;54464;50.558;9.704;2022-12-18T01:33:53;-7.90;99.90
27162;DHT22;54464;50.558;9.704;2022-12-18T01:36:25;-7.90;99.90
27162;DHT22;54464;50.558;9.704;2022-12-18T01:38:51;-7.90;99.90
27162;DHT22;54464;50.558;9.704;2022-12-18T01:41:21;-7.90;99.90
27162;DHT22;54464;50.558;9.704;2022-12-18T01:43:51;-8.00;99.90
27162;DHT22;54464;50.558;9.704;2022-12-18T01:46:19;-8.00;99.90
27162;DHT22;54464;50.558;9.704;2022-12-18T01:48:47;-7.90;99.90
27162;DHT22;54464;50.558;9.704;2022-12-18T01:51:14;-8.00;99.90
27162;DHT22;54464;50.558;9.704;2022-12-18T01:53:41;-8.00;99.90
27162;DHT22;54464;50.558;9.704;2022-12-18T01:56:10;-8.00;99.90
27162;DHT22;54464;50.558;9.704;2022-12-18T01:58:55;-8.00;99.90
27162;DHT22;54464;50.558;9.704;2022-12-18T02:01:23;-8.10;99.90
27162;DHT22;54464;50.558;9.704;2022-12-18T02:03:49;-8.10;99.90
27162;DHT22;54464;50.558;9.704;2022-12-18T02:06:26;-8.20;99.90
27162;DHT22;54464;50.558;9.704;2022-12-18T02:08:58;-8.10;99.90
27162;DHT22;54464;50.558;9.704;2022-12-18T02:11:47;-8.20;99.90
27162;DHT22;54464;50.558;9.704;2022-12-18T02:17:18;-8.10;99.90
27162;DHT22;54464;50.558;9.704;2022-12-18T02:27:51;-8.20;99.90
27162;DHT22;54464;50.558;9.704;2022-12-18T02:30:18;-8.20;99.90
27162;DHT22;54464;50.558;9.704;2022-12-18T02:32:47;-8.20;99.90
27162;DHT22;54464;50.558;9.704;2022-12-18T02:35:17;-8.20;99.90
27162;DHT22;54464;50.558;9.704;2022-12-18T02:37:46;-8.10;99.90
27162;DHT22;54464;50.558;9.704;2022-12-18T02:40:13;-8.20;99.90
27162;DHT22;54464;50.558;9.704;2022-12-18T02:42:40;-8.20;99.90
27162;DHT22;54464;50.558;9.704;2022-12-18T02:45:07;-8.20;99.90
27162;DHT22;54464;50.558;9.704;2022-12-18T02:47:36;-8.30;99.90
27162;DHT22;54464;50.558;9.704;2022-12-18T02:50:30;-8.30;99.90
27162;DHT22;54464;50.558;9.704;2022-12-18T02:53:26;-8.30;99.90
27162;DHT22;54464;50.558;9.704;2022-12-18T02:56:05;-8.30;99.90
27162;DHT22;54464;50.558;9.704;2022-12-18T03:01:12;-8.50;99.90
27162;DHT22;54464;50.558;9.704;2022-12-18T03:03:55;-8.50;99.90
27162;DHT22;54464;50.558;9.704;2022-12-18T03:06:29;-8.60;99.90
27162;DHT22;54464;50.558;9.704;2022-12-18T03:09:06;-8.60;99.90
27162;DHT22;54464;50.558;9.704;2022-12-18T03:11:34;-8.60;99.90
27162;DHT22;54464;50.558;9.704;2022-12-18T03:14:21;-8.60;99.90
27162;DHT22;54464;50.558;9.704;2022-12-18T03:16:57;-8.60;99.90
27162;DHT22;54464;50.558;9.704;2022-12-18T03:19:27;-8.70;99.90
27162;DHT22;54464;50.558;9.704;2022-12-18T03:21:56;-8.70;99.90
27162;DHT22;54464;50.558;9.704;2022-12-18T03:24:24;-8.70;99.90
27162;DHT22;54464;50.558;9.704;2022-12-18T03:26:54;-8.70;99.90
27162;DHT22;54464;50.558;9.704;2022-12-18T03:29:30;-8.60;99.90
27162;DHT22;54464;50.558;9.704;2022-12-18T03:32:23;-8.70;99.90
27162;DHT22;54464;50.558;9.704;2022-12-18T03:34:57;-8.80;99.90
27162;DHT22;54464;50.558;9.704;2022-12-18T03:37:24;-8.90;99.90
27162;DHT22;54464;50.558;9.704;2022-12-18T03:39:50;-8.90;99.90
27162;DHT22;54464;50.558;9.704;2022-12-18T03:45:31;-9.00;99.90
27162;DHT22;54464;50.558;9.704;2022-12-18T03:53:41;-9.00;99.90
27162;DHT22;54464;50.558;9.704;2022-12-18T03:56:10;-9.00;99.90
27162;DHT22;54464;50.558;9.704;2022-12-18T03:58:40;-9.00;99.90
27162;DHT22;54464;50.558;9.704;2022-12-18T04:01:12;-8.90;99.90
27162;DHT22;54464;50.558;9.704;2022-12-18T04:03:39;-8.90;99.90
27162;DHT22;54464;50.558;9.704;2022-12-18T04:06:06;-9.00;99.90
27162;DHT22;54464;50.558;9.704;2022-12-18T04:08:33;-9.00;99.90
27162;DHT22;54464;50.558;9.704;2022-12-18T04:11:00;-9.00;99.90
27162;DHT22;54464;50.558;9.704;2022-12-18T04:13:34;-9.00;99.90
27162;DHT22;54464;50.558;9.704;2022-12-18T04:16:00;-9.10;99.90
27162;DHT22;54464;50.558;9.704;2022-12-18T04:18:26;-9.10;99.90
27162;DHT22;54464;50.558;9.704;2022-12-18T04:20:52;-9.10;99.90
27162;DHT22;54464;50.558;9.704;2022-12-18T04:23:18;-9.10;99.90
27162;DHT22;54464;50.558;9.704;2022-12-18T04:25:43;-9.10;99.90
27162;DHT22;54464;50.558;9.704;2022-12-18T04:28:09;-9.00;99.90
27162;DHT22;54464;50.558;9.704;2022-12-18T04:30:34;-9.00;99.90
27162;DHT22;54464;50.558;9.704;2022-12-18T04:33:00;-9.00;99.90
27162;DHT22;54464;50.558;9.704;2022-12-18T04:35:26;-9.10;99.90
27162;DHT22;54464;50.558;9.704;2022-12-18T04:37:51;-9.00;99.90
27162;DHT22;54464;50.558;9.704;2022-12-18T04:40:17;-9.00;99.90
27162;DHT22;54464;50.558;9.704;2022-12-18T04:42:43;-9.10;99.90
27162;DHT22;54464;50.558;9.704;2022-12-18T04:45:09;-9.10;99.90
27162;DHT22;54464;50.558;9.704;2022-12-18T04:47:35;-9.10;99.90
27162;DHT22;54464;50.558;9.704;2022-12-18T04:50:00;-9.20;99.90
27162;DHT22;54464;50.558;9.704;2022-12-18T04:52:26;-9.20;99.90
27162;DHT22;54464;50.558;9.704;2022-12-18T04:54:51;-9.30;99.90
27162;DHT22;54464;50.558;9.704;2022-12-18T04:57:17;-9.30;99.90
27162;DHT22;54464;50.558;9.704;2022-12-18T04:59:46;-9.30;99.90
27162;DHT22;54464;50.558;9.704;2022-12-18T05:02:14;-9.30;99.90
27162;DHT22;54464;50.558;9.704;2022-12-18T05:04:39;-9.30;99.90
27162;DHT22;54464;50.558;9.704;2022-12-18T05:07:05;-9.30;99.90
27162;DHT22;54464;50.558;9.704;2022-12-18T05:09:31;-9.30;99.90
27162;DHT22;54464;50.558;9.704;2022-12-18T05:11:56;-9.30;99.90
27162;DHT22;54464;50.558;9.704;2022-12-18T05:14:22;-9.30;99.90
27162;DHT22;54464;50.558;9.704;2022-12-18T05:16:48;-9.40;99.90
27162;DHT22;54464;50.558;9.704;2022-12-18T05:19:14;-9.30;99.90
27162;DHT22;54464;50.558;9.704;2022-12-18T05:21:39;-9.30;99.90
27162;DHT22;54464;50.558;9.704;2022-12-18T05:24:05;-9.40;99.90
27162;DHT22;54464;50.558;9.704;2022-12-18T05:26:31;-9.40;99.90
27162;DHT22;54464;50.558;9.704;2022-12-18T05:28:57;-9.40;99.90
27162;DHT22;54464;50.558;9.704;2022-12-18T05:31:22;-9.50;99.90
27162;DHT22;54464;50.558;9.704;2022-12-18T05:33:51;-9.50;99.90
27162;DHT22;54464;50.558;9.704;2022-12-18T05:36:16;-9.50;99.90
27162;DHT22;54464;50.558;9.704;2022-12-18T05:38:42;-9.50;99.90
27162;DHT22;54464;50.558;9.704;2022-12-18T05:41:09;-9.50;99.90
27162;DHT22;54464;50.558;9.704;2022-12-18T05:43:36;-9.50;99.90
27162;DHT22;54464;50.558;9.704;2022-12-18T05:46:11;-9.50;99.90
27162;DHT22;54464;50.558;9.704;2022-12-18T05:48:38;-9.50;99.90
27162;DHT22;54464;50.558;9.704;2022-12-18T05:51:10;-9.50;99.90
27162;DHT22;54464;50.558;9.704;2022-12-18T05:53:36;-9.50;99.90
27162;DHT22;54464;50.558;9.704;2022-12-18T05:56:06;-9.60;99.90
27162;DHT22;54464;50.558;9.704;2022-12-18T05:58:32;-9.60;99.90
27162;DHT22;54464;50.558;9.704;2022-12-18T06:01:09;-9.60;99.90
27162;DHT22;54464;50.558;9.704;2022-12-18T06:03:35;-9.50;99.90
27162;DHT22;54464;50.558;9.704;2022-12-18T06:06:01;-9.50;99.90
27162;DHT22;54464;50.558;9.704;2022-12-18T06:08:27;-9.50;99.90
27162;DHT22;54464;50.558;9.704;2022-12-18T06:10:52;-9.50;99.90
27162;DHT22;54464;50.558;9.704;2022-12-18T06:13:19;-9.50;99.90
27162;DHT22;54464;50.558;9.704;2022-12-18T06:15:45;-9.50;99.90
27162;DHT22;54464;50.558;9.704;2022-12-18T06:18:11;-9.50;99.90
27162;DHT22;54464;50.558;9.704;2022-12-18T06:20:36;-9.60;99.90
27162;DHT22;54464;50.558;9.704;2022-12-18T06:23:05;-9.60;99.90
27162;DHT22;54464;50.558;9.704;2022-12-18T06:25:31;-9.50;99.90
27162;DHT22;54464;50.558;9.704;2022-12-18T06:28:00;-9.60;99.90
27162;DHT22;54464;50.558;9.704;2022-12-18T06:30:26;-9.60;99.90
27162;DHT22;54464;50.558;9.704;2022-12-18T06:32:51;-9.60;99.90
27162;DHT22;54464;50.558;9.704;2022-12-18T06:35:20;-9.70;99.90
27162;DHT22;54464;50.558;9.704;2022-12-18T06:37:45;-9.70;99.90
27162;DHT22;54464;50.558;9.704;2022-12-18T06:40:11;-9.70;99.90
27162;DHT22;54464;50.558;9.704;2022-12-18T06:42:37;-9.70;99.90
27162;DHT22;54464;50.558;9.704;2022-12-18T06:45:03;-9.80;99.90
27162;DHT22;54464;50.558;9.704;2022-12-18T06:47:28;-9.80;99.90
27162;DHT22;54464;50.558;9.704;2022-12-18T06:49:54;-9.70;99.90
27162;DHT22;54464;50.558;9.704;2022-12-18T06:52:19;-9.80;99.90
27162;DHT22;54464;50.558;9.704;2022-12-18T06:54:45;-9.80;99.90
27162;DHT22;54464;50.558;9.704;2022-12-18T06:57:11;-9.70;99.90
27162;DHT22;54464;50.558;9.704;2022-12-18T06:59:36;-9.70;99.90
27162;DHT22;54464;50.558;9.704;2022-12-18T07:02:02;-9.70;99.90
27162;DHT22;54464;50.558;9.704;2022-12-18T07:04:31;-9.70;99.90
27162;DHT22;54464;50.558;9.704;2022-12-18T07:06:57;-9.70;99.90
27162;DHT22;54464;50.558;9.704;2022-12-18T07:09:23;-9.70;99.90
27162;DHT22;54464;50.558;9.704;2022-12-18T07:11:49;-9.70;99.90
27162;DHT22;54464;50.558;9.704;2022-12-18T07:14:14;-9.70;99.90
27162;DHT22;54464;50.558;9.704;2022-12-18T07:16:40;-9.80;99.90
27162;DHT22;54464;50.558;9.704;2022-12-18T07:19:06;-9.80;99.90
27162;DHT22;54464;50.558;9.704;2022-12-18T07:21:31;-9.80;99.90
27162;DHT22;54464;50.558;9.704;2022-12-18T07:23:57;-9.90;99.90
27162;DHT22;54464;50.558;9.704;2022-12-18T07:26:23;-9.90;99.90
27162;DHT22;54464;50.558;9.704;2022-12-18T07:28:49;-9.90;99.90
27162;DHT22;54464;50.558;9.704;2022-12-18T07:31:18;-10.00;99.90
27162;DHT22;54464;50.558;9.704;2022-12-18T07:33:44;-10.00;99.90
27162;DHT22;54464;50.558;9.704;2022-12-18T07:36:10;-10.00;99.90
27162;DHT22;54464;50.558;9.704;2022-12-18T07:38:36;-10.00;99.90
27162;DHT22;54464;50.558;9.704;2022-12-18T07:41:07;-10.00;99.90
27162;DHT22;54464;50.558;9.704;2022-12-18T07:43:34;-10.00;99.90
27162;DHT22;54464;50.558;9.704;2022-12-18T07:46:00;-10.00;99.90
27162;DHT22;54464;50.558;9.704;2022-12-18T07:48:26;-9.90;99.90
27162;DHT22;54464;50.558;9.704;2022-12-18T07:50:52;-10.10;99.90
27162;DHT22;54464;50.558;9.704;2022-12-18T07:53:18;-10.00;99.90
27162;DHT22;54464;50.558;9.704;2022-12-18T07:55:44;-10.00;99.90
27162;DHT22;54464;50.558;9.704;2022-12-18T07:58:09;-9.90;99.90
27162;DHT22;54464;50.558;9.704;2022-12-18T08:00:35;-9.80;99.90
27162;DHT22;54464;50.558;9.704;2022-12-18T08:03:01;-9.70;99.90
27162;DHT22;54464;50.558;9.704;2022-12-18T08:05:27;-9.60;99.90
27162;DHT22;54464;50.558;9.704;2022-12-18T08:07:53;-9.60;99.90
27162;DHT22;54464;50.558;9.704;2022-12-18T08:10:20;-9.60;99.90
27162;DHT22;54464;50.558;9.704;2022-12-18T08:12:49;-9.50;99.90
27162;DHT22;54464;50.558;9.704;2022-12-18T08:15:15;-9.50;99.90
27162;DHT22;54464;50.558;9.704;2022-12-18T08:17:41;-9.50;99.90
27162;DHT22;54464;50.558;9.704;2022-12-18T08:20:07;-9.40;99.90
27162;DHT22;54464;50.558;9.704;2022-12-18T08:22:34;-9.40;99.90
27162;DHT22;54464;50.558;9.704;2022-12-18T08:25:01;-9.40;99.90
27162;DHT22;54464;50.558;9.704;2022-12-18T08:27:26;-9.40;99.90
27162;DHT22;54464;50.558;9.704;2022-12-18T08:29:52;-9.30;99.90
27162;DHT22;54464;50.558;9.704;2022-12-18T08:32:18;-9.30;99.90
27162;DHT22;54464;50.558;9.704;2022-12-18T08:34:43;-9.20;99.90
27162;DHT22;54464;50.558;9.704;2022-12-18T08:37:12;-9.20;99.90
27162;DHT22;54464;50.558;9.704;2022-12-18T08:39:37;-9.20;99.90
27162;DHT22;54464;50.558;9.704;2022-12-18T08:42:03;-9.10;99.90
27162;DHT22;54464;50.558;9.704;2022-12-18T08:44:47;-9.10;99.90
27162;DHT22;54464;50.558;9.704;2022-12-18T08:47:13;-9.10;99.90
27162;DHT22;54464;50.558;9.704;2022-12-18T08:49:39;-9.10;99.90
27162;DHT22;54464;50.558;9.704;2022-12-18T08:52:05;-9.10;99.90
27162;DHT22;54464;50.558;9.704;2022-12-18T08:54:31;-9.10;99.90
27162;DHT22;54464;50.558;9.704;2022-12-18T08:56:57;-9.10;99.90
27162;DHT22;54464;50.558;9.704;2022-12-18T08:59:22;-9.10;99.90
27162;DHT22;54464;50.558;9.704;2022-12-18T09:01:49;-9.10;99.90
27162;DHT22;54464;50.558;9.704;2022-12-18T09:04:14;-9.10;99.90
27162;DHT22;54464;50.558;9.704;2022-12-18T09:06:40;-9.10;99.90
27162;DHT22;54464;50.558;9.704;2022-12-18T09:09:06;-9.10;99.90
27162;DHT22;54464;50.558;9.704;2022-12-18T09:11:32;-9.00;99.90
27162;DHT22;54464;50.558;9.704;2022-12-18T09:13:59;-8.90;99.90
27162;DHT22;54464;50.558;9.704;2022-12-18T09:16:27;-8.90;99.90
27162;DHT22;54464;50.558;9.704;2022-12-18T09:18:56;-8.90;99.90
27162;DHT22;54464;50.558;9.704;2022-12-18T09:21:26;-8.80;99.90
27162;DHT22;54464;50.558;9.704;2022-12-18T09:23:53;-8.80;99.90
27162;DHT22;54464;50.558;9.704;2022-12-18T09:26:19;-8.70;99.90
27162;DHT22;54464;50.558;9.704;2022-12-18T09:28:45;-8.60;99.90
27162;DHT22;54464;50.558;9.704;2022-12-18T09:31:15;-8.50;99.90
27162;DHT22;54464;50.558;9.704;2022-12-18T09:33:41;-8.40;99.90
27162;DHT22;54464;50.558;9.704;2022-12-18T09:36:09;-8.30;99.90
27162;DHT22;54464;50.558;9.704;2022-12-18T09:38:35;-8.20;99.90
27162;DHT22;54464;50.558;9.704;2022-12-18T09:44:00;-7.90;99.90
27162;DHT22;54464;50.558;9.704;2022-12-18T09:46:33;-7.70;99.90
27162;DHT22;54464;50.558;9.704;2022-12-18T09:49:03;-7.50;99.90
27162;DHT22;54464;50.558;9.704;2022-12-18T09:51:37;-7.40;99.90
27162;DHT22;54464;50.558;9.704;2022-12-18T09:54:06;-7.40;99.90
27162;DHT22;54464;50.558;9.704;2022-12-18T09:56:36;-7.20;99.90
27162;DHT22;54464;50.558;9.704;2022-12-18T09:59:04;-7.20;99.90
27162;DHT22;54464;50.558;9.704;2022-12-18T10:01:32;-7.10;99.90
27162;DHT22;54464;50.558;9.704;2022-12-18T10:03:58;-6.90;99.90
27162;DHT22;54464;50.558;9.704;2022-12-18T10:09:44;-6.60;99.90
27162;DHT22;54464;50.558;9.704;2022-12-18T10:12:22;-6.40;99.90
27162;DHT22;54464;50.558;9.704;2022-12-18T10:20:44;-6.30;99.90
27162;DHT22;54464;50.558;9.704;2022-12-18T10:23:40;-6.10;99.90
27162;DHT22;54464;50.558;9.704;2022-12-18T10:26:10;-6.10;99.90
27162;DHT22;54464;50.558;9.704;2022-12-18T10:28:41;-6.10;99.90
27162;DHT22;54464;50.558;9.704;2022-12-18T10:31:12;-6.20;99.90
27162;DHT22;54464;50.558;9.704;2022-12-18T10:33:41;-6.20;99.90
27162;DHT22;54464;50.558;9.704;2022-12-18T10:36:07;-6.10;99.90
27162;DHT22;54464;50.558;9.704;2022-12-18T10:38:33;-6.00;99.90
27162;DHT22;54464;50.558;9.704;2022-12-18T10:41:08;-5.90;99.90
27162;DHT22;54464;50.558;9.704;2022-12-18T10:44:12;-5.90;99.90
27162;DHT22;54464;50.558;9.704;2022-12-18T10:46:38;-5.80;99.90
27162;DHT22;54464;50.558;9.704;2022-12-18T10:49:04;-5.90;99.90
27162;DHT22;54464;50.558;9.704;2022-12-18T10:51:31;-5.80;99.90
27162;DHT22;54464;50.558;9.704;2022-12-18T10:54:04;-5.60;99.90
27162;DHT22;54464;50.558;9.704;2022-12-18T10:56:35;-5.50;99.90
27162;DHT22;54464;50.558;9.704;2022-12-18T10:59:07;-5.40;99.90
27162;DHT22;54464;50.558;9.704;2022-12-18T11:01:53;-5.30;99.90
27162;DHT22;54464;50.558;9.704;2022-12-18T11:04:28;-5.10;99.90
27162;DHT22;54464;50.558;9.704;2022-12-18T11:06:58;-4.90;99.90
27162;DHT22;54464;50.558;9.704;2022-12-18T11:09:27;-4.70;99.90
27162;DHT22;54464;50.558;9.704;2022-12-18T11:11:55;-4.40;99.90
27162;DHT22;54464;50.558;9.704;2022-12-18T11:14:34;-4.20;99.90
27162;DHT22;54464;50.558;9.704;2022-12-18T11:17:27;-4.20;99.90
27162;DHT22;54464;50.558;9.704;2022-12-18T11:20:05;-4.00;99.90
27162;DHT22;54464;50.558;9.704;2022-12-18T11:22:36;-3.90;99.90
27162;DHT22;54464;50.558;9.704;2022-12-18T11:25:17;-4.00;99.90
27162;DHT22;54464;50.558;9.704;2022-12-18T11:31:22;-3.80;99.90
27162;DHT22;54464;50.558;9.704;2022-12-18T11:34:02;-3.90;99.90
27162;DHT22;54464;50.558;9.704;2022-12-18T11:36:34;-4.00;99.90
27162;DHT22;54464;50.558;9.704;2022-12-18T11:39:09;-4.10;99.90
27162;DHT22;54464;50.558;9.704;2022-12-18T11:41:56;-4.10;99.90
27162;DHT22;54464;50.558;9.704;2022-12-18T11:44:50;-4.00;99.90
27162;DHT22;54464;50.558;9.704;2022-12-18T11:50:12;-3.90;99.90
27162;DHT22;54464;50.558;9.704;2022-12-18T11:52:40;-3.80;99.90
27162;DHT22;54464;50.558;9.704;2022-12-18T11:55:23;-3.80;99.90
27162;DHT22;54464;50.558;9.704;2022-12-18T12:00:29;-3.80;99.90
27162;DHT22;54464;50.558;9.704;2022-12-18T12:06:22;-3.60;99.90
27162;DHT22;54464;50.558;9.704;2022-12-18T12:09:14;-3.50;99.90
27162;DHT22;54464;50.558;9.704;2022-12-18T12:15:06;-3.50;99.90
27162;DHT22;54464;50.558;9.704;2022-12-18T12:26:03;-3.70;99.90
27162;DHT22;54464;50.558;9.704;2022-12-18T12:29:01;-3.70;99.90
27162;DHT22;54464;50.558;9.704;2022-12-18T12:31:51;-3.70;99.90
27162;DHT22;54464;50.558;9.704;2022-12-18T12:37:28;-3.60;99.90
27162;DHT22;54464;50.558;9.704;2022-12-18T12:39:56;-3.60;99.90
27162;DHT22;54464;50.558;9.704;2022-12-18T12:42:31;-3.50;99.90
27162;DHT22;54464;50.558;9.704;2022-12-18T12:45:28;-3.30;99.90
27162;DHT22;54464;50.558;9.704;2022-12-18T12:47:57;-3.40;99.90
27162;DHT22;54464;50.558;9.704;2022-12-18T12:50:25;-3.40;99.90
27162;DHT22;54464;50.558;9.704;2022-12-18T12:52:54;-3.50;99.90
27162;DHT22;54464;50.558;9.704;2022-12-18T12:55:26;-3.50;99.90
27162;DHT22;54464;50.558;9.704;2022-12-18T12:58:16;-3.60;99.90
27162;DHT22;54464;50.558;9.704;2022-12-18T13:00:59;-3.70;99.90
27162;DHT22;54464;50.558;9.704;2022-12-18T13:03:56;-3.70;99.90
27162;DHT22;54464;50.558;9.704;2022-12-18T13:06:27;-3.70;99.90
27162;DHT22;54464;50.558;9.704;2022-12-18T13:08:59;-3.70;99.90
27162;DHT22;54464;50.558;9.704;2022-12-18T13:14:37;-3.70;99.90
27162;DHT22;54464;50.558;9.704;2022-12-18T13:17:24;-3.60;99.90
27162;DHT22;54464;50.558;9.704;2022-12-18T13:20:13;-3.70;99.90
27162;DHT22;54464;50.558;9.704;2022-12-18T13:22:49;-3.70;99.90
27162;DHT22;54464;50.558;9.704;2022-12-18T13:25:35;-3.70;99.90
27162;DHT22;54464;50.558;9.704;2022-12-18T13:30:41;-3.50;99.90
27162;DHT22;54464;50.558;9.704;2022-12-18T13:41:26;-3.60;99.90
27162;DHT22;54464;50.558;9.704;2022-12-18T13:44:32;-3.60;99.90
27162;DHT22;54464;50.558;9.704;2022-12-18T13:46:56;-3.60;99.90
27162;DHT22;54464;50.558;9.704;2022-12-18T13:52:26;-3.70;99.90
27162;DHT22;54464;50.558;9.704;2022-12-18T13:55:01;-3.70;99.90
27162;DHT22;54464;50.558;9.704;2022-12-18T13:57:30;-3.80;99.90
27162;DHT22;54464;50.558;9.704;2022-12-18T13:59:57;-3.80;99.90
27162;DHT22;54464;50.558;9.704;2022-12-18T14:02:25;-3.80;99.90
27162;DHT22;54464;50.558;9.704;2022-12-18T14:04:52;-3.80;99.90
27162;DHT22;54464;50.558;9.704;2022-12-18T14:07:22;-3.80;99.90
27162;DHT22;54464;50.558;9.704;2022-12-18T14:09:59;-3.70;99.90
27162;DHT22;54464;50.558;9.704;2022-12-18T14:12:33;-3.70;99.90
27162;DHT22;54464;50.558;9.704;2022-12-18T14:17:57;-3.70;99.90
27162;DHT22;54464;50.558;9.704;2022-12-18T14:20:25;-3.80;99.90
27162;DHT22;54464;50.558;9.704;2022-12-18T14:22:51;-3.80;99.90
27162;DHT22;54464;50.558;9.704;2022-12-18T14:25:20;-3.80;99.90
27162;DHT22;54464;50.558;9.704;2022-12-18T14:27:57;-3.70;99.90
27162;DHT22;54464;50.558;9.704;2022-12-18T14:30:30;-3.70;99.90
27162;DHT22;54464;50.558;9.704;2022-12-18T14:33:12;-3.70;99.90
27162;DHT22;54464;50.558;9.704;2022-12-18T14:35:41;-3.70;99.90
27162;DHT22;54464;50.558;9.704;2022-12-18T14:38:17;-3.80;99.90
27162;DHT22;54464;50.558;9.704;2022-12-18T14:40:43;-3.80;99.90
27162;DHT22;54464;50.558;9.704;2022-12-18T14:43:10;-3.90;99.90
27162;DHT22;54464;50.558;9.704;2022-12-18T14:45:41;-3.90;99.90
27162;DHT22;54464;50.558;9.704;2022-12-18T14:50:44;-4.10;99.90
27162;DHT22;54464;50.558;9.704;2022-12-18T14:53:43;-4.20;99.90
27162;DHT22;54464;50.558;9.704;2022-12-18T14:58:51;-4.20;99.90
27162;DHT22;54464;50.558;9.704;2022-12-18T15:01:24;-4.20;99.90
27162;DHT22;54464;50.558;9.704;2022-12-18T15:03:53;-4.20;99.90
27162;DHT22;54464;50.558;9.704;2022-12-18T15:06:33;-4.10;99.90
27162;DHT22;54464;50.558;9.704;2022-12-18T15:09:02;-4.10;99.90
27162;DHT22;54464;50.558;9.704;2022-12-18T15:11:34;-4.10;99.90
27162;DHT22;54464;50.558;9.704;2022-12-18T15:14:41;-4.10;99.90
27162;DHT22;54464;50.558;9.704;2022-12-18T15:17:18;-4.10;99.90
27162;DHT22;54464;50.558;9.704;2022-12-18T15:19:45;-4.10;99.90
27162;DHT22;54464;50.558;9.704;2022-12-18T15:24:52;-4.20;99.90
27162;DHT22;54464;50.558;9.704;2022-12-18T15:27:26;-4.20;99.90
27162;DHT22;54464;50.558;9.704;2022-12-18T15:32:34;-4.20;99.90
27162;DHT22;54464;50.558;9.704;2022-12-18T15:35:25;-4.30;99.90
27162;DHT22;54464;50.558;9.704;2022-12-18T15:37:51;-4.30;99.90
27162;DHT22;54464;50.558;9.704;2022-12-18T15:40:21;-4.30;99.90
27162;DHT22;54464;50.558;9.704;2022-12-18T15:42:47;-4.30;99.90
27162;DHT22;54464;50.558;9.704;2022-12-18T15:45:31;-4.40;99.90
27162;DHT22;54464;50.558;9.704;2022-12-18T15:47:57;-4.40;99.90
27162;DHT22;54464;50.558;9.704;2022-12-18T15:50:23;-4.40;99.90
27162;DHT22;54464;50.558;9.704;2022-12-18T15:52:51;-4.40;99.90
27162;DHT22;54464;50.558;9.704;2022-12-18T15:55:22;-4.50;99.90
27162;DHT22;54464;50.558;9.704;2022-12-18T15:58:10;-4.50;99.90
27162;DHT22;54464;50.558;9.704;2022-12-18T16:00:42;-4.50;99.90
27162;DHT22;54464;50.558;9.704;2022-12-18T16:03:08;-4.50;99.90
27162;DHT22;54464;50.558;9.704;2022-12-18T16:05:34;-4.60;99.90
27162;DHT22;54464;50.558;9.704;2022-12-18T16:08:02;-4.60;99.90
27162;DHT22;54464;50.558;9.704;2022-12-18T16:10:28;-4.60;99.90
27162;DHT22;54464;50.558;9.704;2022-12-18T16:12:54;-4.60;99.90
27162;DHT22;54464;50.558;9.704;2022-12-18T16:15:20;-4.60;99.90
27162;DHT22;54464;50.558;9.704;2022-12-18T16:17:46;-4.60;99.90
27162;DHT22;54464;50.558;9.704;2022-12-18T16:20:16;-4.70;99.90
27162;DHT22;54464;50.558;9.704;2022-12-18T16:22:44;-4.70;99.90
27162;DHT22;54464;50.558;9.704;2022-12-18T16:27:42;-4.70;99.90
27162;DHT22;54464;50.558;9.704;2022-12-18T16:30:16;-4.70;99.90
27162;DHT22;54464;50.558;9.704;2022-12-18T16:32:43;-4.70;99.90
27162;DHT22;54464;50.558;9.704;2022-12-18T16:35:13;-4.70;99.90
27162;DHT22;54464;50.558;9.704;2022-12-18T16:37:40;-4.60;99.90
27162;DHT22;54464;50.558;9.704;2022-12-18T16:40:07;-4.60;99.90
27162;DHT22;54464;50.558;9.704;2022-12-18T16:42:35;-4.50;99.90
27162;DHT22;54464;50.558;9.704;2022-12-18T16:45:01;-4.30;99.90
27162;DHT22;54464;50.558;9.704;2022-12-18T16:47:27;-4.30;99.90
27162;DHT22;54464;50.558;9.704;2022-12-18T16:49:53;-4.20;99.90
27162;DHT22;54464;50.558;9.704;2022-12-18T16:52:19;-4.20;99.90
27162;DHT22;54464;50.558;9.704;2022-12-18T16:54:45;-4.20;99.90
27162;DHT22;54464;50.558;9.704;2022-12-18T16:57:13;-4.10;99.90
27162;DHT22;54464;50.558;9.704;2022-12-18T16:59:39;-4.10;99.90
27162;DHT22;54464;50.558;9.704;2022-12-18T17:02:06;-4.10;99.90
27162;DHT22;54464;50.558;9.704;2022-12-18T17:04:36;-4.00;99.90
27162;DHT22;54464;50.558;9.704;2022-12-18T17:07:02;-3.80;99.90
27162;DHT22;54464;50.558;9.704;2022-12-18T17:09:29;-3.80;99.90
27162;DHT22;54464;50.558;9.704;2022-12-18T17:11:55;-3.80;99.90
27162;DHT22;54464;50.558;9.704;2022-12-18T17:14:22;-3.80;99.90
27162;DHT22;54464;50.558;9.704;2022-12-18T17:16:50;-3.70;99.90
27162;DHT22;54464;50.558;9.704;2022-12-18T17:19:15;-3.70;99.90
27162;DHT22;54464;50.558;9.704;2022-12-18T17:21:43;-3.70;99.90